Terminal Aerodrome Forecast
Issued by NWS Cleveland, OH

Home | Current Version | Previous Version | Graphics & Text | Print | Product List | Glossary On
Versions: 1 2 3 4 5 6 7 8 9 10 11 12 13 14 15 16 17 18
000
FTUS41 KCLE 201100
TAFMFD
TAF
KMFD 201140Z 2012/2112 24012KT P6SM OVC040
     FM201600 26015G25KT P6SM OVC045
     FM210000 25012KT P6SM BKN035
     FM210800 25007KT P6SM SCT035=

USA.gov is the U.S. government's official web portal to all federal, state and local government web resources and services.